createdAt,value
2018-07-07T00:00:02.022Z,24.80
2018-07-07T00:02:30.563Z,25.03
2018-07-07T00:04:58.684Z,24.33
2018-07-07T00:07:26.849Z,20.53
2018-07-07T00:09:55.349Z,21.70
2018-07-07T00:12:23.812Z,22.23
2018-07-07T00:14:52.286Z,24.40
2018-07-07T00:17:20.817Z,25.63
2018-07-07T00:19:49.263Z,28.70
2018-07-07T00:22:17.414Z,25.30
2018-07-07T00:24:45.923Z,33.90
2018-07-07T00:27:14.637Z,25.47
2018-07-07T00:29:43.158Z,23.77
2018-07-07T00:32:11.720Z,24.20
2018-07-07T00:34:39.956Z,27.17
2018-07-07T00:37:08.197Z,30.07
2018-07-07T00:39:36.534Z,26.27
2018-07-07T00:42:05.014Z,21.50
2018-07-07T00:44:33.489Z,25.87
2018-07-07T00:47:01.948Z,25.97
2018-07-07T00:49:30.091Z,22.13
2018-07-07T00:51:58.241Z,28.37
2018-07-07T00:54:26.835Z,25.20
2018-07-07T00:56:55.369Z,23.47
2018-07-07T00:59:23.580Z,31.07
2018-07-07T01:01:51.831Z,29.10
2018-07-07T01:04:20.320Z,23.20
2018-07-07T01:06:48.767Z,23.90
2018-07-07T01:09:17.309Z,26.07
2018-07-07T01:11:45.887Z,25.00
2018-07-07T01:14:14.352Z,22.73
2018-07-07T01:16:42.519Z,22.23
2018-07-07T01:19:11.051Z,26.90
2018-07-07T01:21:39.218Z,25.40
2018-07-07T01:24:07.794Z,23.90
2018-07-07T01:26:36.306Z,28.40
2018-07-07T01:29:04.768Z,21.53
2018-07-07T01:31:32.980Z,24.83
2018-07-07T01:34:01.459Z,26.87
2018-07-07T01:36:29.924Z,26.40
2018-07-07T01:38:58.397Z,22.60
2018-07-07T01:41:26.706Z,20.90
2018-07-07T01:43:55.128Z,25.30
2018-07-07T01:46:23.258Z,23.70
2018-07-07T01:48:51.870Z,22.80
2018-07-07T01:51:20.143Z,20.43
2018-07-07T01:53:48.631Z,21.20
2018-07-07T01:56:17.155Z,23.70
2018-07-07T01:58:45.630Z,22.93
2018-07-07T02:01:14.114Z,20.60
2018-07-07T02:03:42.304Z,24.40
2018-07-07T02:06:10.492Z,21.63
2018-07-07T02:08:38.894Z,28.27
2018-07-07T02:11:07.142Z,22.40
2018-07-07T02:13:35.258Z,21.50
2018-07-07T02:16:03.706Z,21.00
2018-07-07T02:18:31.906Z,31.00
2018-07-07T02:21:00.347Z,25.07
2018-07-07T02:23:28.474Z,25.17
2018-07-07T02:25:57.046Z,26.17
2018-07-07T02:28:25.194Z,29.00
2018-07-07T02:30:53.644Z,24.33
2018-07-07T02:33:22.142Z,24.17
2018-07-07T02:35:50.653Z,24.23
2018-07-07T02:38:19.114Z,22.93
2018-07-07T02:40:47.599Z,21.70
2018-07-07T02:43:15.752Z,25.83
2018-07-07T02:45:44.189Z,20.17
2018-07-07T02:48:12.680Z,23.13
2018-07-07T02:50:41.220Z,22.37
2018-07-07T02:53:09.359Z,21.17
2018-07-07T02:55:37.559Z,26.13
2018-07-07T02:58:06.103Z,24.73
2018-07-07T03:00:34.291Z,24.90
2018-07-07T03:03:02.762Z,19.87
2018-07-07T03:05:31.333Z,24.13
2018-07-07T03:07:59.488Z,23.33
2018-07-07T03:10:27.669Z,21.40
2018-07-07T03:12:55.828Z,23.13
2018-07-07T03:15:24.024Z,23.50
2018-07-07T03:17:52.638Z,21.87
2018-07-07T03:20:21.180Z,18.73
2018-07-07T03:22:49.325Z,21.17
2018-07-07T03:25:17.878Z,22.70
2018-07-07T03:27:46.181Z,21.73
2018-07-07T03:30:14.662Z,21.87
2018-07-07T03:32:42.894Z,22.07
2018-07-07T03:35:11.407Z,23.27
2018-07-07T03:37:39.573Z,17.50
2018-07-07T03:40:08.159Z,19.13
2018-07-07T03:42:36.405Z,24.40
2018-07-07T03:45:04.680Z,18.37
2018-07-07T03:47:33.029Z,19.80
2018-07-07T03:50:01.572Z,19.23
2018-07-07T03:52:30.114Z,18.33
2018-07-07T03:54:58.626Z,20.17
2018-07-07T03:57:26.803Z,19.90
2018-07-07T03:59:55.331Z,20.90
2018-07-07T04:02:23.802Z,30.10
2018-07-07T04:04:52.327Z,19.90
2018-07-07T04:07:20.943Z,18.73
2018-07-07T04:09:49.285Z,24.17
2018-07-07T04:12:17.458Z,21.07
2018-07-07T04:14:45.974Z,28.73
2018-07-07T04:17:14.098Z,25.63
2018-07-07T04:19:42.576Z,23.43
2018-07-07T04:22:11.074Z,21.00
2018-07-07T04:24:39.621Z,18.70
2018-07-07T04:27:07.774Z,21.67
2018-07-07T04:29:36.283Z,25.30
2018-07-07T04:32:04.738Z,22.93
2018-07-07T04:34:34.788Z,19.83
2018-07-07T04:37:06.508Z,24.33
2018-07-07T04:39:35.762Z,21.70
2018-07-07T04:42:08.729Z,24.57
2018-07-07T04:44:41.631Z,23.50
2018-07-07T04:47:10.622Z,25.37
2018-07-07T04:49:39.593Z,22.00
2018-07-07T04:52:09.319Z,22.57
2018-07-07T04:54:39.641Z,26.00
2018-07-07T04:57:09.090Z,22.27
2018-07-07T04:59:42.290Z,22.83
2018-07-07T05:02:15.568Z,21.07
2018-07-07T05:04:44.340Z,22.83
2018-07-07T05:07:13.169Z,22.53
2018-07-07T05:09:41.774Z,21.97
2018-07-07T05:12:10.348Z,23.17
2018-07-07T05:14:40.872Z,23.93
2018-07-07T05:17:12.349Z,23.27
2018-07-07T05:19:41.898Z,25.73
2018-07-07T05:22:12.785Z,24.30
2018-07-07T05:24:43.660Z,23.00
2018-07-07T05:27:12.160Z,23.03
2018-07-07T05:29:40.945Z,25.03
2018-07-07T05:32:09.560Z,21.50
2018-07-07T05:34:38.097Z,22.13
2018-07-07T05:37:06.666Z,24.10
2018-07-07T05:39:41.702Z,22.77
2018-07-07T05:42:10.968Z,22.37
2018-07-07T05:44:42.888Z,26.93
2018-07-07T05:47:11.590Z,19.67
2018-07-07T05:49:39.951Z,22.60
2018-07-07T05:52:10.769Z,21.97
2018-07-07T05:54:41.531Z,24.07
2018-07-07T05:57:10.935Z,20.77
2018-07-07T05:59:40.140Z,23.90
2018-07-07T06:02:09.932Z,20.07
2018-07-07T06:04:38.452Z,18.47
2018-07-07T06:07:06.940Z,20.07
2018-07-07T06:09:35.426Z,19.53
2018-07-07T06:12:03.654Z,21.53
2018-07-07T06:14:31.788Z,24.63
2018-07-07T06:17:00.273Z,18.87
2018-07-07T06:19:29.425Z,21.57
2018-07-07T06:21:57.879Z,21.83
2018-07-07T06:24:27.738Z,17.00
2018-07-07T06:26:59.905Z,15.83
2018-07-07T06:29:31.587Z,17.67
2018-07-07T06:32:00.899Z,14.37
2018-07-07T06:34:31.174Z,19.50
2018-07-07T06:37:02.072Z,17.47
2018-07-07T06:39:30.245Z,18.90
2018-07-07T06:42:02.444Z,17.23
2018-07-07T06:44:35.560Z,20.27
2018-07-07T06:47:11.432Z,15.93
2018-07-07T06:49:39.653Z,13.87
2018-07-07T06:52:07.897Z,11.63
2018-07-07T06:54:37.565Z,17.53
2018-07-07T06:57:07.737Z,13.80
2018-07-07T06:59:35.944Z,13.07
2018-07-07T07:02:04.477Z,14.20
2018-07-07T07:04:32.926Z,10.23
2018-07-07T07:07:01.400Z,14.93
2018-07-07T07:09:32.262Z,15.30
2018-07-07T07:12:01.282Z,13.60
2018-07-07T07:14:29.714Z,15.53
2018-07-07T07:17:02.043Z,14.80
2018-07-07T07:19:30.577Z,12.13
2018-07-07T07:21:59.390Z,11.67
2018-07-07T07:24:30.579Z,11.03
2018-07-07T07:27:05.397Z,11.40
2018-07-07T07:29:40.633Z,11.93
2018-07-07T07:32:10.030Z,15.90
2018-07-07T07:35:00.585Z,14.27
2018-07-07T07:37:30.785Z,11.60
2018-07-07T07:40:01.883Z,16.00
2018-07-07T07:42:34.987Z,11.50
2018-07-07T07:45:04.578Z,13.33
2018-07-07T07:47:38.841Z,15.97
2018-07-07T07:50:07.333Z,13.00
2018-07-07T07:52:36.356Z,10.77
2018-07-07T07:55:04.938Z,10.00
2018-07-07T07:57:34.976Z,12.97
2018-07-07T08:00:03.456Z,13.80
2018-07-07T08:02:32.004Z,11.93
2018-07-07T08:05:02.163Z,10.90
2018-07-07T08:07:31.952Z,13.33
2018-07-07T08:10:01.445Z,14.30
2018-07-07T08:12:33.754Z,11.70
2018-07-07T08:15:03.922Z,13.27
2018-07-07T08:17:32.106Z,13.03
2018-07-07T08:20:00.803Z,13.40
2018-07-07T08:22:29.528Z,10.87
2018-07-07T08:24:58.184Z,12.97
2018-07-07T08:27:30.883Z,11.17
2018-07-07T08:30:00.728Z,13.30
2018-07-07T08:32:29.842Z,9.90
2018-07-07T08:34:58.004Z,9.67
2018-07-07T08:37:26.122Z,10.43
2018-07-07T08:39:54.673Z,19.40
2018-07-07T08:42:22.810Z,13.87
2018-07-07T08:44:52.461Z,12.90
2018-07-07T08:47:20.608Z,11.20
2018-07-07T08:49:48.934Z,15.60
2018-07-07T08:52:17.422Z,13.80
2018-07-07T08:54:45.559Z,10.50
2018-07-07T08:57:13.747Z,10.57
2018-07-07T08:59:41.903Z,13.93
2018-07-07T09:02:10.270Z,10.10
2018-07-07T09:04:38.499Z,11.83
2018-07-07T09:07:06.782Z,16.70
2018-07-07T09:09:46.250Z,13.67
2018-07-07T09:12:14.835Z,17.20
2018-07-07T09:14:44.378Z,19.20
2018-07-07T09:17:12.620Z,14.17
2018-07-07T09:19:41.261Z,13.37
2018-07-07T09:22:10.778Z,23.10
2018-07-07T09:24:40.513Z,11.50
2018-07-07T09:27:09.000Z,12.47
2018-07-07T09:29:37.138Z,12.73
2018-07-07T09:32:05.956Z,11.73
2018-07-07T09:34:34.527Z,11.07
2018-07-07T09:37:02.765Z,13.23
2018-07-07T09:39:31.190Z,13.97
2018-07-07T09:42:01.899Z,13.40
2018-07-07T09:44:34.000Z,9.33
2018-07-07T09:47:02.631Z,10.53
2018-07-07T09:49:30.810Z,10.00
2018-07-07T09:51:59.652Z,9.60
2018-07-07T09:54:30.168Z,9.07
2018-07-07T09:57:04.601Z,16.77
2018-07-07T09:59:39.526Z,11.90
2018-07-07T10:04:50.911Z,7.10
2018-07-07T10:07:44.016Z,13.00
2018-07-07T10:10:15.860Z,13.53
2018-07-07T10:12:49.109Z,8.90
2018-07-07T10:15:25.261Z,13.00
2018-07-07T10:17:55.060Z,5.10
2018-07-07T10:23:05.783Z,10.87
2018-07-07T10:25:37.242Z,7.93
2018-07-07T10:28:09.530Z,11.80
2018-07-07T10:30:42.421Z,5.30
2018-07-07T10:33:20.934Z,5.70
2018-07-07T10:35:53.810Z,4.73
2018-07-07T10:38:32.739Z,8.90
2018-07-07T10:41:05.972Z,5.23
2018-07-07T10:43:54.274Z,4.53
2018-07-07T10:46:32.099Z,4.03
2018-07-07T10:49:12.651Z,4.50
2018-07-07T10:51:52.373Z,7.47
2018-07-07T10:54:30.310Z,4.77
2018-07-07T11:00:12.772Z,6.40
2018-07-07T11:02:49.694Z,6.50
2018-07-07T11:05:44.859Z,5.80
2018-07-07T11:08:19.893Z,6.47
2018-07-07T11:10:59.728Z,5.53
2018-07-07T11:13:37.959Z,8.20
2018-07-07T11:16:17.869Z,9.10
2018-07-07T11:18:52.105Z,7.60
2018-07-07T11:21:34.559Z,8.90
2018-07-07T11:24:18.717Z,3.90
2018-07-07T11:26:53.192Z,5.33
2018-07-07T11:29:29.192Z,4.63
2018-07-07T11:32:03.950Z,11.17
2018-07-07T11:34:43.947Z,6.40
2018-07-07T11:37:33.228Z,4.57
2018-07-07T11:40:06.766Z,8.13
2018-07-07T11:42:46.538Z,9.90
2018-07-07T11:45:35.554Z,5.43
2018-07-07T11:48:10.604Z,5.07
2018-07-07T11:50:46.732Z,6.40
2018-07-07T11:53:27.545Z,4.53
2018-07-07T11:56:06.085Z,5.43
2018-07-07T11:59:02.811Z,8.80
2018-07-07T12:04:35.438Z,6.23
2018-07-07T12:07:32.340Z,6.93
2018-07-07T12:10:13.852Z,6.57
2018-07-07T12:12:52.160Z,4.20
2018-07-07T12:15:53.300Z,7.63
2018-07-07T12:18:36.089Z,4.97
2018-07-07T12:21:28.385Z,7.33
2018-07-07T12:24:23.244Z,4.13
2018-07-07T12:27:09.755Z,6.40
2018-07-07T12:29:58.701Z,6.93
2018-07-07T12:32:44.348Z,4.13
2018-07-07T12:35:28.752Z,6.60
2018-07-07T12:38:13.788Z,4.90
2018-07-07T12:40:52.600Z,5.97
2018-07-07T12:43:33.430Z,7.87
2018-07-07T12:46:14.741Z,8.13
2018-07-07T12:49:00.655Z,5.83
2018-07-07T12:51:36.028Z,7.03
2018-07-07T12:59:48.817Z,4.40
2018-07-07T13:02:19.403Z,7.73
2018-07-07T13:04:49.092Z,7.70
2018-07-07T13:07:17.719Z,5.87
2018-07-07T13:09:46.385Z,4.33
2018-07-07T13:12:14.795Z,4.40
2018-07-07T13:14:42.986Z,3.97
2018-07-07T13:17:17.145Z,6.37
2018-07-07T13:19:45.455Z,5.87
2018-07-07T13:22:17.426Z,5.73
2018-07-07T13:24:48.467Z,7.70
2018-07-07T13:27:18.539Z,3.87
2018-07-07T13:29:49.603Z,5.90
2018-07-07T13:32:20.801Z,4.00
2018-07-07T13:35:23.846Z,4.17
2018-07-07T13:37:54.362Z,5.07
2018-07-07T13:40:27.466Z,5.07
2018-07-07T13:43:28.836Z,4.80
2018-07-07T13:45:57.426Z,4.10
2018-07-07T13:48:26.228Z,3.57
2018-07-07T13:50:54.676Z,3.87
2018-07-07T13:53:22.959Z,4.73
2018-07-07T13:55:51.709Z,4.93
2018-07-07T13:58:20.206Z,5.00
2018-07-07T14:00:48.672Z,9.90
2018-07-07T14:03:17.192Z,6.80
2018-07-07T14:05:45.355Z,5.90
2018-07-07T14:08:13.933Z,8.93
2018-07-07T14:10:43.196Z,4.73
2018-07-07T14:13:11.667Z,5.53
2018-07-07T14:15:40.116Z,4.03
2018-07-07T14:18:14.424Z,3.70
2018-07-07T14:20:43.225Z,4.03
2018-07-07T14:23:14.402Z,4.33
2018-07-07T14:25:49.482Z,9.10
2018-07-07T14:28:18.386Z,5.63
2018-07-07T14:30:46.943Z,7.30
2018-07-07T14:33:18.699Z,4.40
2018-07-07T14:35:47.513Z,8.30
2018-07-07T14:38:26.675Z,4.40
2018-07-07T14:41:06.415Z,4.33
2018-07-07T14:43:40.238Z,8.53
2018-07-07T14:46:08.530Z,5.70
2018-07-07T14:48:45.041Z,6.80
2018-07-07T14:51:14.672Z,3.83
2018-07-07T14:53:43.256Z,8.70
2018-07-07T14:56:11.622Z,4.20
2018-07-07T14:58:39.792Z,5.07
2018-07-07T15:01:08.418Z,10.17
2018-07-07T15:03:36.858Z,8.20
2018-07-07T15:06:05.313Z,4.97
2018-07-07T15:08:33.737Z,7.60
2018-07-07T15:11:02.607Z,4.13
2018-07-07T15:13:30.865Z,5.13
2018-07-07T15:15:59.464Z,4.40
2018-07-07T15:18:28.241Z,8.03
2018-07-07T15:20:56.745Z,9.47
2018-07-07T15:23:25.697Z,13.30
2018-07-07T15:25:53.857Z,4.63
2018-07-07T15:28:22.876Z,13.03
2018-07-07T15:30:51.398Z,12.03
2018-07-07T15:33:21.849Z,8.10
2018-07-07T15:35:55.455Z,5.67
2018-07-07T15:38:24.316Z,4.40
2018-07-07T15:40:53.446Z,6.53
2018-07-07T15:43:21.584Z,4.00
2018-07-07T15:45:50.592Z,6.23
2018-07-07T15:48:18.687Z,5.23
2018-07-07T15:50:49.206Z,6.57
2018-07-07T15:53:17.760Z,3.63
2018-07-07T15:55:46.083Z,3.93
2018-07-07T15:58:14.608Z,4.93
2018-07-07T16:00:43.536Z,5.53
2018-07-07T16:03:22.656Z,5.30
2018-07-07T16:05:51.317Z,3.60
2018-07-07T16:08:20.091Z,5.40
2018-07-07T16:10:50.384Z,4.10
2018-07-07T16:13:18.762Z,5.10
2018-07-07T16:15:46.871Z,7.90
2018-07-07T16:18:15.518Z,7.33
2018-07-07T16:23:52.271Z,7.60
2018-07-07T16:26:24.129Z,4.37
2018-07-07T16:28:53.841Z,4.70
2018-07-07T16:31:34.763Z,6.30
2018-07-07T16:34:09.126Z,7.43
2018-07-07T16:39:57.409Z,4.40
2018-07-07T16:42:34.266Z,9.20
2018-07-07T16:45:11.906Z,16.10
2018-07-07T16:47:43.088Z,14.63
2018-07-07T16:50:12.128Z,15.67
2018-07-07T16:52:40.332Z,11.13
2018-07-07T16:55:08.509Z,4.03
2018-07-07T16:57:37.062Z,6.07
2018-07-07T17:00:05.611Z,4.13
2018-07-07T17:02:34.993Z,4.03
2018-07-07T17:05:05.564Z,8.10
2018-07-07T17:07:43.354Z,4.77
2018-07-07T17:10:23.648Z,3.87
2018-07-07T17:13:01.423Z,5.90
2018-07-07T17:15:30.716Z,3.97
2018-07-07T17:17:58.894Z,4.07
2018-07-07T17:20:27.393Z,5.37
2018-07-07T17:22:55.904Z,6.03
2018-07-07T17:25:24.441Z,8.50
2018-07-07T17:27:53.027Z,6.70
2018-07-07T17:30:21.431Z,9.13
2018-07-07T17:32:50.186Z,13.70
2018-07-07T17:35:18.777Z,10.40
2018-07-07T17:37:47.570Z,5.50
2018-07-07T17:40:16.195Z,6.50
2018-07-07T17:42:44.767Z,5.37
2018-07-07T17:45:13.334Z,6.63
2018-07-07T17:47:41.980Z,9.60
2018-07-07T17:50:10.533Z,4.30
2018-07-07T17:52:39.096Z,4.00
2018-07-07T17:55:08.649Z,9.60
2018-07-07T17:57:38.304Z,5.20
2018-07-07T18:00:06.621Z,5.37
2018-07-07T18:02:35.453Z,4.67
2018-07-07T18:05:03.787Z,5.13
2018-07-07T18:07:31.921Z,3.93
2018-07-07T18:10:00.489Z,6.43
2018-07-07T18:12:29.027Z,9.10
2018-07-07T18:14:57.332Z,5.27
2018-07-07T18:17:25.883Z,3.33
2018-07-07T18:19:54.610Z,3.70
2018-07-07T18:22:23.190Z,6.57
2018-07-07T18:24:51.678Z,7.70
2018-07-07T18:27:20.232Z,8.30
2018-07-07T18:29:48.864Z,6.30
2018-07-07T18:32:17.383Z,6.30
2018-07-07T18:34:46.030Z,6.80
2018-07-07T18:37:14.557Z,5.30
2018-07-07T18:39:42.782Z,5.40
2018-07-07T18:42:11.016Z,7.10
2018-07-07T18:44:39.312Z,8.63
2018-07-07T18:47:07.812Z,8.23
2018-07-07T18:49:36.014Z,11.50
2018-07-07T18:52:04.395Z,7.07
2018-07-07T18:54:32.541Z,10.20
2018-07-07T18:57:00.746Z,4.33
2018-07-07T18:59:29.220Z,5.70
2018-07-07T19:01:57.445Z,8.23
2018-07-07T19:04:26.075Z,4.77
2018-07-07T19:06:55.317Z,9.23
2018-07-07T19:09:23.577Z,6.87
2018-07-07T19:11:51.855Z,9.40
2018-07-07T19:14:20.561Z,5.70
2018-07-07T19:16:49.961Z,8.63
2018-07-07T19:19:18.611Z,4.27
2018-07-07T19:21:52.289Z,4.20
2018-07-07T19:24:26.131Z,7.80
2018-07-07T19:26:55.397Z,5.20
2018-07-07T19:29:24.209Z,5.27
2018-07-07T19:31:57.847Z,5.60
2018-07-07T19:34:31.301Z,6.63
2018-07-07T19:37:04.886Z,7.83
2018-07-07T19:39:33.023Z,4.53
2018-07-07T19:42:01.677Z,5.23
2018-07-07T19:44:30.367Z,12.90
2018-07-07T19:46:58.574Z,9.60
2018-07-07T19:49:26.731Z,41.43
2018-07-07T19:51:54.998Z,16.70
2018-07-07T19:54:23.392Z,6.73
2018-07-07T19:56:51.672Z,5.30
2018-07-07T19:59:20.028Z,5.23
2018-07-07T20:01:48.314Z,8.93
2018-07-07T20:04:17.735Z,5.83
2018-07-07T20:06:46.591Z,6.10
2018-07-07T20:09:15.211Z,5.77
2018-07-07T20:11:43.412Z,5.73
2018-07-07T20:14:13.093Z,7.87
2018-07-07T20:16:54.081Z,6.33
2018-07-07T20:19:23.477Z,4.50
2018-07-07T20:21:56.119Z,5.33
2018-07-07T20:24:30.338Z,5.00
2018-07-07T20:27:04.049Z,5.40
2018-07-07T20:29:32.812Z,6.83
2018-07-07T20:32:01.193Z,5.70
2018-07-07T20:34:30.475Z,6.23
2018-07-07T20:36:59.017Z,5.30
2018-07-07T20:39:27.183Z,8.47
2018-07-07T20:41:55.713Z,6.20
2018-07-07T20:44:23.942Z,8.50
2018-07-07T20:46:52.138Z,6.80
2018-07-07T20:49:20.693Z,5.27
2018-07-07T20:51:49.234Z,9.67
2018-07-07T20:54:17.478Z,7.50
2018-07-07T20:56:45.884Z,10.50
2018-07-07T20:59:13.976Z,6.03
2018-07-07T21:01:42.222Z,5.90
2018-07-07T21:04:10.900Z,7.03
2018-07-07T21:06:39.440Z,9.67
2018-07-07T21:09:07.666Z,7.53
2018-07-07T21:11:36.022Z,10.83
2018-07-07T21:14:04.575Z,9.07
2018-07-07T21:16:32.734Z,9.77
2018-07-07T21:19:00.957Z,10.03
2018-07-07T21:21:29.511Z,8.00
2018-07-07T21:23:57.962Z,9.10
2018-07-07T21:26:26.524Z,7.00
2018-07-07T21:28:55.078Z,10.07
2018-07-07T21:31:23.613Z,9.50
2018-07-07T21:33:52.161Z,8.57
2018-07-07T21:36:20.335Z,13.97
2018-07-07T21:38:48.801Z,14.17
2018-07-07T21:41:17.276Z,10.27
2018-07-07T21:43:45.642Z,11.83
2018-07-07T21:46:13.772Z,10.93
2018-07-07T21:48:41.915Z,10.33
2018-07-07T21:51:10.290Z,9.37
2018-07-07T21:53:38.770Z,10.30
2018-07-07T21:56:06.926Z,10.00
2018-07-07T21:58:35.213Z,7.83
2018-07-07T22:01:26.734Z,9.87
2018-07-07T22:04:00.401Z,10.73
2018-07-07T22:06:34.111Z,18.00
2018-07-07T22:09:02.684Z,14.97
2018-07-07T22:11:31.330Z,10.20
2018-07-07T22:13:59.627Z,11.80
2018-07-07T22:16:27.986Z,10.47
2018-07-07T22:18:56.210Z,10.47
2018-07-07T22:21:39.572Z,9.80
2018-07-07T22:24:07.690Z,8.70
2018-07-07T22:26:35.848Z,9.10
2018-07-07T22:29:04.394Z,11.40
2018-07-07T22:31:33.558Z,10.40
2018-07-07T22:34:02.300Z,9.07
2018-07-07T22:36:33.538Z,10.33
2018-07-07T22:39:01.793Z,10.93
2018-07-07T22:41:35.470Z,20.70
2018-07-07T22:44:03.965Z,10.77
2018-07-07T22:46:32.120Z,8.80
2018-07-07T22:49:00.388Z,10.17
2018-07-07T22:51:28.828Z,16.60
2018-07-07T22:53:56.933Z,10.60
2018-07-07T22:56:25.106Z,10.87
2018-07-07T22:58:53.218Z,15.20
2018-07-07T23:01:21.766Z,19.67
2018-07-07T23:03:50.264Z,10.70
2018-07-07T23:06:18.371Z,11.87
2018-07-07T23:08:46.575Z,10.17
2018-07-07T23:11:15.053Z,18.23
2018-07-07T23:13:43.507Z,10.50
2018-07-07T23:16:11.706Z,10.90
2018-07-07T23:18:39.870Z,9.30
2018-07-07T23:21:07.970Z,10.53
2018-07-07T23:23:36.077Z,9.47
2018-07-07T23:26:04.671Z,19.23
2018-07-07T23:28:33.151Z,14.83
2018-07-07T23:31:01.458Z,20.20
2018-07-07T23:33:29.880Z,13.60
2018-07-07T23:35:58.117Z,14.77
2018-07-07T23:38:26.753Z,14.13
2018-07-07T23:40:55.194Z,14.07
2018-07-07T23:43:23.328Z,13.13
2018-07-07T23:45:51.441Z,13.33
2018-07-07T23:48:19.591Z,14.37
2018-07-07T23:50:47.751Z,12.93
2018-07-07T23:53:15.964Z,13.70
2018-07-07T23:55:44.405Z,11.27
2018-07-07T23:58:12.865Z,14.00
